Date,TemperatureHighF,TemperatureAvgF,TemperatureLowF,DewpointHighF,DewpointAvgF,DewpointLowF,HumidityHigh,HumidityAvg,HumidityLow,PressureMaxIn,PressureMinIn,WindSpeedMaxMPH,WindSpeedAvgMPH,GustSpeedMaxMPH,PrecipitationSumIn
2013-3-1,32,29,25,30,24,19,93,80,71,30.13,29.96,15,4,15,0.00
2013-3-2,30,26,24,20,19,17,82,73,63,30.12,30.07,16,4,16,0.00
2013-3-3,32,26,18,19,17,13,86,71,56,30.11,30.05,19,3,19,0.00
2013-3-4,37,26,12,24,18,10,93,73,42,30.18,30.07,7,1,7,0.01
2013-3-5,32,30,27,28,25,23,95,84,73,30.10,29.72,20,3,21,0.00
2013-3-6,33,30,25,28,26,23,95,84,74,30.26,29.79,19,5,21,0.07
2013-3-7,39,34,30,30,27,22,91,76,53,30.41,30.24,11,2,11,0.01
2013-3-8,43,30,16,26,21,14,94,73,45,30.52,30.41,7,1,7,0.00
2013-3-9,44,35,22,35,28,19,93,78,61,30.42,29.98,14,2,14,0.00
2013-3-10,62,50,38,45,38,33,82,66,48,29.99,29.75,16,2,18,0.02
2013-3-11,57,46,35,49,42,31,96,85,54,29.75,29.52,23,4,23,0.42
2013-3-12,35,32,30,31,28,25,92,82,68,29.97,29.75,23,4,23,0.00
2013-3-13,31,27,0,28,21,0,91,77,64,30.30,29.96,20,4,20,0.00
2013-3-14,42,30,20,25,20,15,85,67,42,30.34,30.14,13,2,13,0.00
2013-3-15,46,38,30,40,33,25,95,85,69,30.15,29.79,14,2,14,0.15
2013-3-16,40,34,31,39,32,25,96,91,78,30.08,29.64,13,3,15,0.01
2013-3-17,35,30,27,26,22,19,83,73,58,30.23,30.07,17,3,17,0.00
2013-3-18,36,31,27,34,29,21,96,90,79,30.10,29.56,19,3,19,0.12
2013-3-19,35,28,22,29,18,14,82,65,49,30.04,29.74,29,6,29,0.00
2013-3-20,30,25,18,18,14,9,82,62,50,30.04,29.97,17,4,18,0.00
2013-3-21,34,23,16,22,16,12,88,75,52,30.03,29.96,16,3,17,0.00
2013-3-22,41,29,17,22,18,14,90,66,39,30.07,29.99,17,2,17,0.00
2013-3-23,43,31,20,27,22,16,92,72,48,30.12,30.00,13,1,13,0.00
2013-3-24,36,31,26,27,25,22,93,78,61,30.02,29.57,26,4,26,0.00
2013-3-25,37,32,28,30,28,26,95,86,68,29.96,29.53,22,7,22,0.08
2013-3-26,40,35,31,31,28,27,86,78,60,30.20,29.96,15,3,15,0.00
2013-3-27,43,36,30,32,28,21,89,72,51,30.29,30.19,17,2,17,0.00
2013-3-28,51,38,26,29,24,20,79,59,37,30.33,30.26,14,2,14,0.00
2013-3-29,52,38,22,30,24,20,95,63,33,30.32,30.22,17,2,17,0.00
2013-3-30,55,40,23,34,27,20,93,63,38,30.25,29.93,13,1,14,0.00
2013-3-31,60,48,39,45,37,29,92,67,38,29.93,29.66,19,3,19,0.00